Terminal Aerodrome Forecast
Issued by NWS

Home | Current Version | Previous Version | Graphics & Text | Print | Product List | Glossary On
Versions: 1 2 3 4 5 6 7 8 9 10 11 12 13 14 15 16 17 18 19 20 21 22 23 24 25 26 27
906
FTUS42 KMHX 300912 AAA
TAFISO
TAF AMD
KISO 300912Z 3009/0106 06006KT 5SM BR OVC005
     FM301200 06007KT P6SM BKN005
     FM301400 06007KT P6SM BKN020
     FM301700 06007KT P6SM SCT025 BKN035
     FM010500 VRB04KT P6SM BKN030
      AMD LTD TO CLD VIS AND WIND=

USA.gov is the U.S. government's official web portal to all federal, state and local government web resources and services.